Terminal Aerodrome Forecast
Issued by NWS

Home | Current Version | Previous Version | Text Only | Print | Product List | Glossary On
Versions: 1 2 3 4 5 6 7 8 9 10 11 12 13 14 15
000
FTAK31 PAJN 261700
TAFASI
TAF
PASI 261725Z 2618/2718 16010KT 5SM -SHRA BKN020 OVC040
     FM261900 19010KT P6SM VCSH SCT030 OVC040
     FM270600 14008KT P6SM -SHRA OVC030
     FM271000 13005KT P6SM VCSH SCT030 OVC040=

USA.gov is the U.S. government's official web portal to all federal, state and local government web resources and services.